Time;durP1;ratioP1;P1;durP2;ratioP2;P2;SDS_P1;SDS_P2;PMS_P1;PMS_P2;Temp;Humidity;BMP_temperature;BMP_pressure;BME280_temperature;BME280_humidity;BME280_pressure;Samples;Min_cycle;Max_cycle;Signal;HPM_P1;HPM_P2
2022/03/23 00:00:36;;;;;;;9.35;8.18;;;;;;;;;;5060053;28;20447;-81
2022/03/23 00:03:02;;;;;;;8.70;7.80;;;;;;;;;;5062026;28;20028;-81
2022/03/23 00:05:28;;;;;;;9.30;7.43;;;;;;;;;;5078352;28;20154;-81
2022/03/23 00:07:54;;;;;;;9.13;7.70;;;;;;;;;;5061589;28;20042;-81
2022/03/23 00:10:23;;;;;;;8.13;7.13;;;;;;;;;;5061085;28;20039;-81
2022/03/23 00:12:48;;;;;;;8.73;7.10;;;;;;;;;;5061552;28;20413;-81
2022/03/23 00:15:14;;;;;;;10.55;7.97;;;;;;;;;;5074561;28;20035;-80
2022/03/23 00:17:40;;;;;;;8.07;7.05;;;;;;;;;;5041501;28;20028;-81
2022/03/23 00:20:06;;;;;;;8.60;7.32;;;;;;;;;;5041486;28;20058;-81
2022/03/23 00:22:31;;;;;;;7.85;6.97;;;;;;;;;;5041130;28;20169;-82
2022/03/23 00:24:57;;;;;;;9.18;6.82;;;;;;;;;;5057845;28;20036;-82
2022/03/23 00:27:23;;;;;;;8.85;7.32;;;;;;;;;;5058038;28;20036;-82
2022/03/23 00:29:49;;;;;;;7.43;6.47;;;;;;;;;;5041566;28;20047;-83
2022/03/23 00:32:14;;;;;;;8.88;7.03;;;;;;;;;;5040977;28;20032;-81
2022/03/23 00:34:40;;;;;;;7.72;6.53;;;;;;;;;;5057758;28;20031;-81
2022/03/23 00:37:05;;;;;;;9.85;7.05;;;;;;;;;;5041276;28;20032;-82
2022/03/23 00:39:31;;;;;;;9.70;7.93;;;;;;;;;;5041024;28;20036;-82
2022/03/23 00:41:57;;;;;;;7.60;6.78;;;;;;;;;;5040635;28;20032;-81
2022/03/23 00:44:22;;;;;;;8.25;6.75;;;;;;;;;;5052074;28;20092;-82
2022/03/23 00:46:48;;;;;;;8.70;7.60;;;;;;;;;;5060782;28;20105;-82
2022/03/23 00:49:13;;;;;;;7.65;6.40;;;;;;;;;;5077479;28;20063;-81
2022/03/23 00:51:39;;;;;;;8.88;6.50;;;;;;;;;;5056934;28;20055;-82
2022/03/23 00:54:04;;;;;;;9.23;7.60;;;;;;;;;;5057739;28;20040;-81
2022/03/23 00:56:30;;;;;;;9.13;7.43;;;;;;;;;;5057842;28;20081;-82
2022/03/23 00:58:55;;;;;;;7.85;6.55;;;;;;;;;;5090791;28;20123;-81
2022/03/23 01:01:22;;;;;;;7.60;6.30;;;;;;;;;;5040596;28;20069;-82
2022/03/23 01:03:47;;;;;;;7.22;6.53;;;;;;;;;;5040844;28;20032;-82
2022/03/23 01:06:14;;;;;;;7.63;6.45;;;;;;;;;;5057255;28;20039;-81
2022/03/23 01:08:40;;;;;;;8.13;5.93;;;;;;;;;;5057073;28;20039;-82
2022/03/23 01:11:05;;;;;;;7.72;6.43;;;;;;;;;;5072074;28;20508;-82
2022/03/23 01:13:31;;;;;;;9.48;7.35;;;;;;;;;;5073974;28;20116;-81
2022/03/23 01:15:57;;;;;;;8.73;6.82;;;;;;;;;;5040548;28;20078;-82
2022/03/23 01:18:23;;;;;;;8.32;6.25;;;;;;;;;;5056914;28;20555;-81
2022/03/23 01:20:48;;;;;;;7.32;6.63;;;;;;;;;;5039606;28;20054;-81
2022/03/23 01:23:14;;;;;;;7.38;6.43;;;;;;;;;;5040031;28;20050;-82
2022/03/23 01:25:39;;;;;;;7.68;6.63;;;;;;;;;;5073812;28;20032;-82
2022/03/23 01:28:05;;;;;;;7.10;6.18;;;;;;;;;;5057065;28;20409;-81
2022/03/23 01:30:30;;;;;;;7.90;6.43;;;;;;;;;;5040107;28;20080;-82
2022/03/23 01:32:56;;;;;;;7.78;6.57;;;;;;;;;;5073446;28;20107;-82
2022/03/23 01:35:21;;;;;;;8.02;6.72;;;;;;;;;;5073426;28;20039;-82
2022/03/23 01:37:47;;;;;;;8.73;6.72;;;;;;;;;;5040043;28;20039;-82
2022/03/23 01:40:12;;;;;;;7.05;6.35;;;;;;;;;;5056866;28;20036;-81
2022/03/23 01:42:38;;;;;;;9.63;6.60;;;;;;;;;;5040436;28;20039;-82
2022/03/23 01:45:05;;;;;;;7.93;6.32;;;;;;;;;;5053520;28;20054;-82
2022/03/23 01:47:31;;;;;;;8.00;6.45;;;;;;;;;;5057175;28;20079;-81
2022/03/23 01:49:56;;;;;;;7.75;6.25;;;;;;;;;;5073677;28;20055;-81
2022/03/23 01:52:24;;;;;;;7.18;6.47;;;;;;;;;;5056014;28;20388;-82
2022/03/23 01:54:50;;;;;;;8.00;6.60;;;;;;;;;;5073388;28;20483;-82
2022/03/23 01:57:17;;;;;;;8.25;6.82;;;;;;;;;;5060163;28;20032;-81
2022/03/23 01:59:42;;;;;;;9.05;6.82;;;;;;;;;;5073565;28;20028;-82
2022/03/23 02:02:11;;;;;;;7.35;5.95;;;;;;;;;;5057046;28;20481;-82
2022/03/23 02:04:36;;;;;;;7.53;6.72;;;;;;;;;;5072567;28;20485;-82
2022/03/23 02:07:03;;;;;;;7.10;5.90;;;;;;;;;;5076772;28;20076;-82
2022/03/23 02:09:28;;;;;;;7.57;5.63;;;;;;;;;;5060190;28;20051;-82
2022/03/23 02:11:54;;;;;;;7.80;7.00;;;;;;;;;;5076826;28;20490;-82
2022/03/23 02:14:19;;;;;;;7.45;5.88;;;;;;;;;;5089839;28;20107;-82
2022/03/23 02:16:46;;;;;;;8.48;6.32;;;;;;;;;;5056371;28;20391;-82
2022/03/23 02:19:12;;;;;;;8.73;6.20;;;;;;;;;;5056660;28;20044;-82
2022/03/23 02:21:52;;;;;;;7.78;6.57;;;;;;;;;;5072781;28;20032;-82
2022/03/23 02:24:24;;;;;;;7.05;6.35;;;;;;;;;;5040109;28;20031;-82
2022/03/23 02:26:50;;;;;;;6.72;6.13;;;;;;;;;;5057031;28;20070;-82
2022/03/23 02:29:16;;;;;;;7.63;5.82;;;;;;;;;;5039923;28;20060;-82
2022/03/23 02:31:41;;;;;;;7.25;5.88;;;;;;;;;;5073226;28;20042;-82
2022/03/23 02:34:08;;;;;;;6.93;6.20;;;;;;;;;;5060046;28;20067;-82
2022/03/23 02:36:33;;;;;;;6.60;5.82;;;;;;;;;;5059902;28;20101;-82
2022/03/23 02:38:59;;;;;;;7.78;6.35;;;;;;;;;;5043167;28;20028;-82
2022/03/23 02:41:24;;;;;;;8.77;6.22;;;;;;;;;;5076440;28;20039;-82
2022/03/23 02:43:50;;;;;;;6.93;6.22;;;;;;;;;;5083173;28;20031;-82
2022/03/23 02:46:17;;;;;;;6.68;5.82;;;;;;;;;;5079601;28;20114;-82
2022/03/23 02:48:43;;;;;;;7.55;5.65;;;;;;;;;;5096812;28;20046;-81
2022/03/23 02:51:08;;;;;;;7.55;6.75;;;;;;;;;;5079581;28;20032;-81
2022/03/23 03:02:21;;;;;;;8.07;6.15;;;;;;;;;;5099087;28;20038;-82
2022/03/23 03:04:48;;;;;;;7.15;6.38;;;;;;;;;;5064928;28;20039;-82
2022/03/23 03:07:14;;;;;;;7.18;5.63;;;;;;;;;;5062753;28;20119;-81
2022/03/23 03:09:39;;;;;;;7.20;6.45;;;;;;;;;;5062695;28;20122;-81
2022/03/23 03:12:05;;;;;;;6.95;5.85;;;;;;;;;;5062720;28;20037;-82
2022/03/23 03:14:31;;;;;;;6.97;5.75;;;;;;;;;;5076228;28;20077;-81
2022/03/23 03:16:57;;;;;;;7.70;6.03;;;;;;;;;;5059380;28;20040;-82
2022/03/23 03:19:22;;;;;;;7.68;6.28;;;;;;;;;;5059062;28;20040;-82
2022/03/23 03:21:47;;;;;;;6.70;5.80;;;;;;;;;;5075602;28;20028;-82
2022/03/23 03:24:13;;;;;;;7.13;5.57;;;;;;;;;;5042529;28;20040;-82
2022/03/23 03:26:38;;;;;;;7.65;6.90;;;;;;;;;;5059238;28;20050;-82
2022/03/23 03:29:04;;;;;;;8.10;6.05;;;;;;;;;;5059366;28;20051;-82
2022/03/23 03:31:30;;;;;;;7.13;5.85;;;;;;;;;;5042311;28;20039;-82
2022/03/23 03:33:55;;;;;;;6.80;6.10;;;;;;;;;;5047346;28;20051;-82
2022/03/23 03:36:21;;;;;;;7.25;5.88;;;;;;;;;;5062129;28;20401;-82
2022/03/23 03:38:46;;;;;;;7.13;5.88;;;;;;;;;;5078286;28;20040;-82
2022/03/23 03:41:12;;;;;;;6.95;5.70;;;;;;;;;;5060607;28;20038;-82
2022/03/23 03:43:38;;;;;;;6.70;6.00;;;;;;;;;;5072890;28;20064;-82
2022/03/23 03:46:06;;;;;;;6.63;5.82;;;;;;;;;;5057213;28;20432;-82
2022/03/23 03:48:32;;;;;;;7.95;6.50;;;;;;;;;;5057501;28;20070;-82
2022/03/23 03:50:57;;;;;;;7.72;6.35;;;;;;;;;;5058893;28;20016;-82
2022/03/23 03:53:23;;;;;;;8.23;6.18;;;;;;;;;;5060851;28;20042;-82
2022/03/23 03:55:48;;;;;;;7.38;5.97;;;;;;;;;;5078160;28;20032;-82
2022/03/23 03:58:14;;;;;;;5.82;5.18;;;;;;;;;;5061859;28;20059;-81
2022/03/23 04:00:40;;;;;;;7.50;6.10;;;;;;;;;;5058339;28;20054;-82
2022/03/23 04:03:06;;;;;;;7.43;5.95;;;;;;;;;;5041656;28;20466;-81
2022/03/23 04:05:34;;;;;;;7.32;6.07;;;;;;;;;;5075333;28;20036;-81
2022/03/23 04:08:00;;;;;;;6.85;5.95;;;;;;;;;;5058190;28;20486;-82
2022/03/23 04:10:26;;;;;;;7.05;6.05;;;;;;;;;;5058331;28;20035;-82
2022/03/23 04:12:51;;;;;;;7.32;5.38;;;;;;;;;;5075109;28;20539;-82
2022/03/23 04:15:19;;;;;;;6.82;6.13;;;;;;;;;;5057907;28;20163;-81
2022/03/23 04:17:45;;;;;;;6.85;6.15;;;;;;;;;;5058160;28;20130;-82
2022/03/23 04:20:11;;;;;;;6.80;5.95;;;;;;;;;;5091550;28;20498;-82
2022/03/23 04:22:38;;;;;;;9.13;6.35;;;;;;;;;;5058175;28;20036;-82
2022/03/23 04:25:08;;;;;;;8.23;6.20;;;;;;;;;;5057993;28;20027;-82
2022/03/23 04:27:36;;;;;;;6.15;5.45;;;;;;;;;;5043359;28;20517;-82
2022/03/23 04:30:01;;;;;;;7.75;6.05;;;;;;;;;;5059614;28;20073;-82
2022/03/23 04:32:27;;;;;;;6.10;5.20;;;;;;;;;;5041181;28;20028;-80
2022/03/23 04:34:52;;;;;;;6.75;6.00;;;;;;;;;;5057689;28;20036;-81
2022/03/23 04:37:18;;;;;;;8.85;5.88;;;;;;;;;;5053006;28;20036;-82
2022/03/23 04:39:43;;;;;;;6.72;5.55;;;;;;;;;;5074298;28;20052;-82
2022/03/23 04:42:08;;;;;;;8.55;6.30;;;;;;;;;;5057586;28;20052;-81
2022/03/23 04:44:34;;;;;;;6.75;5.85;;;;;;;;;;5066737;28;20063;-80
2022/03/23 04:46:59;;;;;;;6.72;6.03;;;;;;;;;;5073673;28;20396;-81
2022/03/23 04:49:25;;;;;;;7.15;6.35;;;;;;;;;;5091131;28;20414;-80
2022/03/23 04:51:51;;;;;;;7.38;5.93;;;;;;;;;;5074018;28;20028;-80
2022/03/23 04:54:17;;;;;;;6.70;5.90;;;;;;;;;;5074214;28;20397;-80
2022/03/23 04:56:42;;;;;;;6.80;5.38;;;;;;;;;;5093069;28;20039;-80
2022/03/23 04:59:09;;;;;;;7.20;6.50;;;;;;;;;;5057564;28;20036;-80
2022/03/23 05:01:34;;;;;;;7.25;6.35;;;;;;;;;;5073588;28;20024;-80
2022/03/23 05:04:00;;;;;;;7.57;6.22;;;;;;;;;;5057558;28;20046;-80
2022/03/23 05:06:25;;;;;;;7.30;6.30;;;;;;;;;;5057011;28;20035;-80
2022/03/23 05:08:51;;;;;;;6.45;5.78;;;;;;;;;;5057063;28;20410;-80
2022/03/23 05:11:16;;;;;;;8.98;5.60;;;;;;;;;;5074003;28;20028;-80
2022/03/23 05:13:41;;;;;;;7.32;5.93;;;;;;;;;;5075498;28;20123;-80
2022/03/23 05:16:07;;;;;;;6.72;5.63;;;;;;;;;;5073125;28;20075;-80
2022/03/23 05:18:33;;;;;;;7.45;6.00;;;;;;;;;;5090576;28;20040;-80
2022/03/23 05:20:58;;;;;;;6.47;5.70;;;;;;;;;;5073778;28;20043;-80
2022/03/23 05:23:24;;;;;;;8.35;6.05;;;;;;;;;;5092931;28;20035;-80
2022/03/23 05:25:49;;;;;;;8.57;6.25;;;;;;;;;;5060373;28;20036;-80
2022/03/23 05:28:15;;;;;;;7.55;6.07;;;;;;;;;;5094116;28;20040;-80
2022/03/23 05:30:40;;;;;;;6.78;5.82;;;;;;;;;;5093891;28;20027;-80
2022/03/23 05:33:06;;;;;;;6.65;5.97;;;;;;;;;;5076967;28;20097;-80
2022/03/23 05:35:31;;;;;;;6.80;6.05;;;;;;;;;;5060060;28;20032;-80
2022/03/23 05:37:57;;;;;;;7.15;5.47;;;;;;;;;;5060296;28;20138;-80
2022/03/23 05:40:23;;;;;;;7.43;6.45;;;;;;;;;;5076807;28;20039;-80
2022/03/23 05:42:49;;;;;;;6.78;6.10;;;;;;;;;;5060729;28;20046;-80
2022/03/23 05:45:14;;;;;;;6.25;5.40;;;;;;;;;;5070843;28;20525;-80
2022/03/23 05:47:40;;;;;;;7.00;5.93;;;;;;;;;;5073064;28;20169;-80
2022/03/23 05:50:06;;;;;;;6.53;5.82;;;;;;;;;;5055731;28;20042;-80
2022/03/23 05:52:32;;;;;;;7.78;5.55;;;;;;;;;;5069531;28;20114;-80
2022/03/23 05:54:57;;;;;;;6.03;5.43;;;;;;;;;;5076970;28;20110;-80
2022/03/23 05:57:23;;;;;;;7.07;5.40;;;;;;;;;;5060080;28;20043;-80
2022/03/23 05:59:48;;;;;;;6.78;5.88;;;;;;;;;;5073072;28;20402;-80
2022/03/23 06:02:14;;;;;;;7.55;5.95;;;;;;;;;;5073416;28;20028;-80
2022/03/23 06:04:39;;;;;;;6.25;5.65;;;;;;;;;;5056525;28;20028;-80
2022/03/23 06:07:05;;;;;;;7.45;5.85;;;;;;;;;;5057533;28;20044;-82
2022/03/23 06:09:30;;;;;;;6.40;5.78;;;;;;;;;;5060598;28;20371;-81
2022/03/23 06:12:00;;;;;;;7.57;5.50;;;;;;;;;;5058428;28;20028;-81
2022/03/23 06:14:26;;;;;;;8.05;5.82;;;;;;;;;;5041922;28;20035;-81
2022/03/23 06:16:52;;;;;;;9.05;5.50;;;;;;;;;;5075739;28;20513;-81
2022/03/23 06:19:17;;;;;;;8.18;5.88;;;;;;;;;;5060463;28;20081;-83
2022/03/23 06:21:43;;;;;;;7.68;5.30;;;;;;;;;;5077007;28;20036;-82
2022/03/23 06:24:09;;;;;;;6.53;5.40;;;;;;;;;;5059766;28;20035;-82
2022/03/23 06:26:35;;;;;;;9.57;6.00;;;;;;;;;;5060111;28;20051;-82
2022/03/23 06:29:00;;;;;;;7.30;5.63;;;;;;;;;;5059810;28;20031;-80
2022/03/23 06:31:25;;;;;;;6.45;4.97;;;;;;;;;;5077169;28;20039;-83
2022/03/23 06:33:51;;;;;;;5.63;5.00;;;;;;;;;;5080270;28;20111;-82
2022/03/23 06:36:16;;;;;;;6.30;5.00;;;;;;;;;;5063615;28;20063;-80
2022/03/23 06:38:42;;;;;;;8.15;5.47;;;;;;;;;;5063089;28;20027;-81
2022/03/23 06:41:08;;;;;;;12.40;5.88;;;;;;;;;;5080375;28;20039;-81
2022/03/23 06:43:33;;;;;;;14.43;5.93;;;;;;;;;;5093295;28;20866;-81
2022/03/23 06:46:00;;;;;;;12.63;5.90;;;;;;;;;;5093511;28;20126;-81
2022/03/23 06:48:25;;;;;;;8.82;5.78;;;;;;;;;;5059719;28;20043;-81
2022/03/23 06:50:51;;;;;;;10.35;5.43;;;;;;;;;;5093944;28;20032;-81
2022/03/23 06:53:16;;;;;;;13.88;6.50;;;;;;;;;;5096148;28;20050;-82
2022/03/23 06:55:42;;;;;;;14.00;7.35;;;;;;;;;;5096429;28;20031;-83
2022/03/23 06:58:07;;;;;;;12.07;7.93;;;;;;;;;;5079528;28;20032;-82
2022/03/23 07:00:32;;;;;;;13.00;8.73;;;;;;;;;;5075904;28;20044;-82
2022/03/23 07:02:58;;;;;;;12.20;8.10;;;;;;;;;;5048225;28;20101;-82
2022/03/23 07:05:24;;;;;;;12.80;8.32;;;;;;;;;;5059538;28;20490;-83
2022/03/23 07:10:34;;;;;;;11.88;7.63;;;;;;;;;;5064405;28;20032;-82
2022/03/23 07:13:00;;;;;;;11.48;7.30;;;;;;;;;;5059376;28;20024;-82
2022/03/23 07:15:25;;;;;;;10.52;7.18;;;;;;;;;;5075403;28;20082;-81
2022/03/23 07:17:51;;;;;;;12.35;7.85;;;;;;;;;;5059153;28;20036;-82
2022/03/23 07:20:16;;;;;;;13.32;7.68;;;;;;;;;;5075774;28;20051;-82
2022/03/23 07:22:43;;;;;;;12.95;7.65;;;;;;;;;;5075634;28;20032;-82
2022/03/23 07:25:09;;;;;;;9.82;7.35;;;;;;;;;;5059352;28;20173;-82
2022/03/23 07:27:34;;;;;;;10.50;7.32;;;;;;;;;;5058868;28;20127;-82
2022/03/23 07:30:00;;;;;;;9.38;7.30;;;;;;;;;;5075886;28;20036;-81
2022/03/23 07:32:25;;;;;;;14.55;8.18;;;;;;;;;;5092565;28;20028;-82
2022/03/23 07:34:51;;;;;;;9.30;6.65;;;;;;;;;;5075600;28;20032;-81
2022/03/23 07:37:16;;;;;;;14.27;7.20;;;;;;;;;;5075801;28;20031;-81
2022/03/23 07:39:42;;;;;;;8.63;6.38;;;;;;;;;;5058674;28;20056;-81
2022/03/23 07:42:08;;;;;;;12.95;7.57;;;;;;;;;;5078265;28;20480;-80
2022/03/23 07:44:34;;;;;;;11.38;7.57;;;;;;;;;;5057400;28;20119;-82
2022/03/23 07:47:00;;;;;;;11.93;7.45;;;;;;;;;;5041935;28;20032;-80
2022/03/23 07:49:26;;;;;;;12.10;7.43;;;;;;;;;;5075164;28;20048;-79
2022/03/23 07:51:51;;;;;;;11.95;6.95;;;;;;;;;;5046942;28;20047;-79
2022/03/23 07:54:17;;;;;;;10.75;7.65;;;;;;;;;;5074969;28;20040;-79
2022/03/23 07:56:43;;;;;;;9.60;7.07;;;;;;;;;;5059993;28;20063;-79
2022/03/23 07:59:08;;;;;;;9.55;7.35;;;;;;;;;;5056726;28;20036;-79
2022/03/23 08:01:34;;;;;;;10.10;8.00;;;;;;;;;;5079056;28;20483;-78
2022/03/23 08:04:00;;;;;;;10.32;7.07;;;;;;;;;;5074217;28;20032;-79
2022/03/23 08:06:26;;;;;;;11.20;7.70;;;;;;;;;;5065470;28;20413;-79
2022/03/23 08:08:52;;;;;;;10.73;6.88;;;;;;;;;;5039811;28;20039;-79
2022/03/23 08:11:17;;;;;;;11.80;7.95;;;;;;;;;;5074962;28;20032;-79
2022/03/23 08:13:43;;;;;;;9.35;6.97;;;;;;;;;;5074737;28;20043;-80
2022/03/23 08:16:09;;;;;;;9.45;7.40;;;;;;;;;;5074457;28;20056;-79
2022/03/23 08:18:35;;;;;;;9.98;7.50;;;;;;;;;;5074959;28;20048;-79
2022/03/23 08:21:01;;;;;;;11.13;7.30;;;;;;;;;;5041459;28;20043;-80
2022/03/23 08:23:26;;;;;;;10.23;7.60;;;;;;;;;;5058019;28;20039;-80
2022/03/23 08:25:52;;;;;;;8.80;6.88;;;;;;;;;;5077902;28;20037;-80
2022/03/23 08:28:18;;;;;;;10.13;7.55;;;;;;;;;;5078166;28;20443;-80
2022/03/23 08:30:44;;;;;;;9.63;7.07;;;;;;;;;;5077301;28;20035;-80
2022/03/23 08:33:10;;;;;;;10.23;6.93;;;;;;;;;;5077823;28;20035;-80
2022/03/23 08:35:36;;;;;;;10.93;7.50;;;;;;;;;;5061030;28;20043;-80
2022/03/23 08:38:01;;;;;;;10.18;6.82;;;;;;;;;;5060908;28;20118;-80
2022/03/23 08:40:28;;;;;;;11.57;7.18;;;;;;;;;;5077661;28;20031;-80
2022/03/23 08:42:55;;;;;;;12.93;6.97;;;;;;;;;;5077803;28;20023;-77
2022/03/23 08:45:21;;;;;;;8.77;7.88;;;;;;;;;;5075193;28;20115;-79
2022/03/23 08:47:48;;;;;;;10.05;6.95;;;;;;;;;;5057412;28;20024;-78
2022/03/23 08:50:14;;;;;;;10.95;7.22;;;;;;;;;;5058467;28;20055;-78
2022/03/23 08:52:41;;;;;;;9.50;6.97;;;;;;;;;;5089219;28;20035;-78
2022/03/23 08:55:09;;;;;;;10.80;7.40;;;;;;;;;;5077850;28;20038;-78
2022/03/23 08:57:35;;;;;;;10.13;6.75;;;;;;;;;;5078058;28;20486;-79
2022/03/23 09:00:01;;;;;;;11.25;7.57;;;;;;;;;;5090696;28;20040;-78
2022/03/23 09:02:27;;;;;;;15.85;10.65;;;;;;;;;;5074607;28;20077;-78
2022/03/23 09:04:53;;;;;;;15.05;11.40;;;;;;;;;;5074023;28;20107;-78
2022/03/23 09:07:18;;;;;;;16.67;11.93;;;;;;;;;;5047423;28;20515;-79
2022/03/23 09:09:44;;;;;;;19.20;13.05;;;;;;;;;;5073784;28;20036;-79
2022/03/23 09:12:09;;;;;;;18.35;13.38;;;;;;;;;;5057147;28;20039;-78
2022/03/23 09:14:35;;;;;;;24.80;15.00;;;;;;;;;;5049414;28;20383;-78
2022/03/23 09:17:02;;;;;;;18.73;13.07;;;;;;;;;;5057194;28;20080;-78
2022/03/23 09:19:27;;;;;;;14.75;11.15;;;;;;;;;;5057576;28;20050;-79
2022/03/23 09:21:54;;;;;;;17.50;10.18;;;;;;;;;;5072614;28;20115;-78
2022/03/23 09:24:25;;;;;;;14.85;11.07;;;;;;;;;;5074099;28;20131;-79
2022/03/23 09:26:50;;;;;;;13.43;10.00;;;;;;;;;;5074623;28;20028;-79
2022/03/23 09:29:16;;;;;;;18.52;9.80;;;;;;;;;;5057215;28;20035;-79
2022/03/23 09:31:41;;;;;;;12.80;8.95;;;;;;;;;;5073428;28;20481;-78
2022/03/23 09:34:08;;;;;;;14.20;9.50;;;;;;;;;;5068134;28;20113;-78
2022/03/23 09:39:18;;;;;;;14.32;9.57;;;;;;;;;;5096641;28;20027;-79
2022/03/23 09:41:46;;;;;;;11.60;8.32;;;;;;;;;;5060584;28;20038;-79
2022/03/23 09:44:12;;;;;;;15.63;8.90;;;;;;;;;;5060719;28;20081;-79
2022/03/23 09:46:38;;;;;;;12.05;9.30;;;;;;;;;;5077594;28;20122;-79
2022/03/23 09:49:05;;;;;;;13.70;8.93;;;;;;;;;;5061676;28;20116;-78
2022/03/23 09:51:34;;;;;;;13.23;8.25;;;;;;;;;;5076781;28;20032;-79
2022/03/23 09:54:00;;;;;;;13.32;7.95;;;;;;;;;;5061161;28;20469;-79
2022/03/23 09:56:26;;;;;;;11.43;8.77;;;;;;;;;;5093701;28;20523;-79
2022/03/23 09:58:51;;;;;;;14.27;8.45;;;;;;;;;;5081591;28;20028;-78
2022/03/23 10:01:29;;;;;;;13.70;8.25;;;;;;;;;;5080644;28;20049;-79
2022/03/23 10:04:12;;;;;;;14.00;8.95;;;;;;;;;;5116143;28;20042;-79
2022/03/23 10:07:15;;;;;;;9.70;6.93;;;;;;;;;;5097065;28;20058;-79
2022/03/23 10:10:08;;;;;;;20.17;14.35;;;;;;;;;;5100370;28;20035;-79
2022/03/23 10:13:11;;;;;;;27.25;18.98;;;;;;;;;;5084182;28;20031;-79
2022/03/23 10:15:55;;;;;;;;;;;;;;;;;;5112976;28;20102;-79
2022/03/23 10:18:20;;;;;;;28.73;16.38;;;;;;;;;;5094831;28;19916;-79
2022/03/23 10:20:47;;;;;;;30.25;15.88;;;;;;;;;;5092383;28;20032;-79
2022/03/23 10:23:12;;;;;;;22.90;14.95;;;;;;;;;;5059786;28;20039;-79
2022/03/23 10:25:38;;;;;;;23.60;15.98;;;;;;;;;;5076900;28;20036;-79
2022/03/23 10:28:15;;;;;;;21.60;15.75;;;;;;;;;;5060623;28;20051;-80
2022/03/23 10:30:42;;;;;;;29.25;15.63;;;;;;;;;;5060897;28;20040;-79
2022/03/23 10:33:21;;;;;;;23.05;15.40;;;;;;;;;;5059889;28;20130;-79
2022/03/23 10:35:47;;;;;;;20.23;14.10;;;;;;;;;;5077095;28;20044;-78
2022/03/23 10:38:17;;;;;;;25.92;16.33;;;;;;;;;;5059748;28;20064;-79
2022/03/23 10:40:44;;;;;;;24.88;16.38;;;;;;;;;;5076673;28;20036;-78
2022/03/23 10:43:15;;;;;;;31.23;16.60;;;;;;;;;;5058001;28;20036;-78
2022/03/23 10:45:40;;;;;;;27.55;16.23;;;;;;;;;;5065360;28;20662;-78
2022/03/23 10:48:16;;;;;;;28.33;17.33;;;;;;;;;;5080454;28;20169;-78
2022/03/23 10:50:51;;;;;;;21.15;14.88;;;;;;;;;;5047068;28;20027;-78
2022/03/23 10:53:17;;;;;;;22.10;15.43;;;;;;;;;;5095915;28;20034;-78
2022/03/23 10:55:47;;;;;;;23.85;15.15;;;;;;;;;;5096927;28;20032;-77
2022/03/23 10:58:13;;;;;;;21.58;13.80;;;;;;;;;;5096641;28;20036;-77
2022/03/23 11:00:38;;;;;;;20.50;13.90;;;;;;;;;;5105148;28;20039;-77
2022/03/23 11:03:06;;;;;;;19.85;11.93;;;;;;;;;;5076120;28;20028;-77
2022/03/23 11:05:38;;;;;;;21.17;11.50;;;;;;;;;;5074589;28;20040;-78
2022/03/23 11:08:20;;;;;;;19.23;11.40;;;;;;;;;;5091132;28;20054;-77
2022/03/23 11:16:35;;;;;;;16.85;10.30;;;;;;;;;;5097191;28;20795;-78
2022/03/23 11:19:10;;;;;;;16.30;9.57;;;;;;;;;;5079207;28;20494;-77
2022/03/23 11:22:12;;;;;;;19.10;10.55;;;;;;;;;;5095834;28;20036;-77
2022/03/23 11:24:46;;;;;;;14.20;8.45;;;;;;;;;;5112416;28;20069;-77
2022/03/23 11:27:17;;;;;;;15.27;8.48;;;;;;;;;;5079821;28;20032;-78
2022/03/23 11:29:43;;;;;;;14.32;7.95;;;;;;;;;;5080465;28;20107;-78
2022/03/23 11:32:18;;;;;;;15.65;7.50;;;;;;;;;;5096058;28;20027;-78
2022/03/23 11:34:48;;;;;;;13.07;7.60;;;;;;;;;;5095992;28;20104;-77
2022/03/23 11:37:14;;;;;;;13.35;7.30;;;;;;;;;;5079151;28;20111;-78
2022/03/23 11:39:41;;;;;;;11.70;7.57;;;;;;;;;;5078720;28;20054;-77
2022/03/23 11:42:06;;;;;;;12.75;6.85;;;;;;;;;;5095818;28;20116;-77
2022/03/23 11:44:32;;;;;;;10.27;6.82;;;;;;;;;;5058790;28;20119;-77
2022/03/23 11:47:02;;;;;;;11.27;6.93;;;;;;;;;;5075105;28;20040;-77
2022/03/23 11:49:30;;;;;;;11.65;6.45;;;;;;;;;;5042473;28;20137;-77
2022/03/23 11:52:05;;;;;;;10.07;6.22;;;;;;;;;;5081248;28;20028;-78
2022/03/23 11:57:54;;;;;;;9.43;5.50;;;;;;;;;;5113104;28;20031;-77
2022/03/23 12:00:20;;;;;;;8.93;6.65;;;;;;;;;;5112026;28;20507;-77
2022/03/23 12:02:45;;;;;;;33.40;8.48;;;;;;;;;;5095308;28;20477;-77
2022/03/23 12:05:29;;;;;;;18.13;7.72;;;;;;;;;;5077645;28;20043;-77
2022/03/23 12:07:54;;;;;;;13.35;6.82;;;;;;;;;;5078946;28;20504;-77
2022/03/23 12:10:22;;;;;;;14.13;8.88;;;;;;;;;;5078403;28;20035;-77
2022/03/23 12:12:47;;;;;;;17.05;8.20;;;;;;;;;;5078416;28;20032;-77
2022/03/23 12:15:27;;;;;;;18.13;7.82;;;;;;;;;;5091301;28;20032;-77
2022/03/23 12:17:55;;;;;;;18.50;9.93;;;;;;;;;;5074355;28;20143;-77
2022/03/23 12:20:31;;;;;;;15.43;8.75;;;;;;;;;;5110021;28;20042;-77
2022/03/23 12:23:11;;;;;;;16.98;11.23;;;;;;;;;;5111561;28;20055;-77
2022/03/23 12:25:41;;;;;;;16.95;9.85;;;;;;;;;;5111622;28;20562;-77
2022/03/23 12:28:31;;;;;;;18.73;11.52;;;;;;;;;;5095756;28;20058;-77
2022/03/23 12:30:57;;;;;;;19.73;11.05;;;;;;;;;;5096346;28;20115;-77
2022/03/23 12:33:27;;;;;;;14.90;10.85;;;;;;;;;;5112797;28;20111;-77
2022/03/23 12:36:01;;;;;;;19.55;12.10;;;;;;;;;;5094549;28;20058;-77
2022/03/23 12:38:27;;;;;;;19.10;11.25;;;;;;;;;;5095387;28;20035;-77
2022/03/23 12:41:01;;;;;;;17.58;11.05;;;;;;;;;;5078401;28;20035;-77
2022/03/23 12:43:32;;;;;;;16.50;9.02;;;;;;;;;;5075095;28;20508;-77
2022/03/23 12:45:58;;;;;;;14.37;9.73;;;;;;;;;;5090713;28;20379;-77
2022/03/23 12:59:37;;;;;;;16.90;10.32;;;;;;;;;;5076176;28;20627;-77
2022/03/23 13:02:27;;;;;;;16.88;9.27;;;;;;;;;;5057199;28;20489;-78
2022/03/23 13:04:52;;;;;;;15.18;10.65;;;;;;;;;;5075564;28;20081;-78
2022/03/23 13:07:35;;;;;;;17.30;11.48;;;;;;;;;;5093976;28;20036;-78
2022/03/23 13:10:08;;;;;;;17.63;12.13;;;;;;;;;;5111590;28;20047;-78
2022/03/23 13:12:34;;;;;;;15.52;10.30;;;;;;;;;;5111646;28;20027;-78
2022/03/23 13:14:59;;;;;;;14.15;9.65;;;;;;;;;;5093757;28;20453;-78
2022/03/23 13:17:25;;;;;;;15.98;10.10;;;;;;;;;;5060282;28;20039;-78
2022/03/23 13:19:57;;;;;;;16.35;10.02;;;;;;;;;;5077116;28;20509;-78
2022/03/23 13:22:38;;;;;;;14.35;10.07;;;;;;;;;;5086912;28;20038;-76
2022/03/23 13:25:05;;;;;;;21.33;11.73;;;;;;;;;;5094203;28;20035;-77
2022/03/23 13:27:30;;;;;;;47.63;14.50;;;;;;;;;;5076986;28;20031;-77
2022/03/23 13:30:00;;;;;;;26.02;12.98;;;;;;;;;;5076830;28;20036;-77
2022/03/23 13:32:32;;;;;;;19.92;11.35;;;;;;;;;;5077357;28;20035;-77
2022/03/23 13:34:59;;;;;;;18.58;10.98;;;;;;;;;;5077259;28;20114;-77
2022/03/23 13:37:25;;;;;;;18.52;10.38;;;;;;;;;;5076949;28;20028;-76
2022/03/23 13:39:50;;;;;;;18.10;10.15;;;;;;;;;;5094071;28;20478;-77
2022/03/23 13:45:07;;;;;;;19.58;11.88;;;;;;;;;;5078905;28;20040;-77
2022/03/23 13:47:33;;;;;;;17.70;12.55;;;;;;;;;;5073361;28;20032;-76
2022/03/23 13:49:59;;;;;;;16.60;10.98;;;;;;;;;;5073786;28;20486;-76
2022/03/23 13:52:26;;;;;;;15.98;9.40;;;;;;;;;;5086634;28;20031;-77
2022/03/23 13:54:55;;;;;;;16.77;10.13;;;;;;;;;;5093532;28;20032;-77
2022/03/23 13:57:20;;;;;;;16.15;9.90;;;;;;;;;;5075803;28;20056;-77
2022/03/23 13:59:46;;;;;;;13.27;8.90;;;;;;;;;;5090512;28;20043;-77
2022/03/23 14:02:16;;;;;;;16.17;9.57;;;;;;;;;;5073291;28;20032;-76
2022/03/23 14:04:42;;;;;;;12.75;8.75;;;;;;;;;;5073987;28;20445;-77
2022/03/23 14:07:07;;;;;;;12.20;8.48;;;;;;;;;;5072997;28;20032;-77
2022/03/23 14:09:33;;;;;;;13.38;8.27;;;;;;;;;;5056491;28;20529;-77
2022/03/23 14:12:05;;;;;;;11.63;7.88;;;;;;;;;;5072104;28;20032;-77
2022/03/23 14:14:31;;;;;;;11.35;8.02;;;;;;;;;;5058625;28;20111;-76
2022/03/23 14:17:01;;;;;;;9.75;6.82;;;;;;;;;;5105914;28;20036;-77
2022/03/23 14:19:29;;;;;;;11.70;7.43;;;;;;;;;;5093146;28;20036;-77
2022/03/23 14:22:00;;;;;;;11.07;7.38;;;;;;;;;;5076018;28;20035;-77
2022/03/23 14:24:30;;;;;;;12.02;7.18;;;;;;;;;;5077116;28;20100;-77
2022/03/23 14:27:11;;;;;;;13.10;8.65;;;;;;;;;;5060960;28;20027;-76
2022/03/23 14:29:37;;;;;;;12.65;8.68;;;;;;;;;;5096843;28;20034;-77
2022/03/23 14:32:03;;;;;;;12.25;7.95;;;;;;;;;;5096930;28;20102;-77
2022/03/23 14:34:30;;;;;;;11.93;7.43;;;;;;;;;;5094743;28;20036;-77
2022/03/23 14:37:06;;;;;;;10.00;7.07;;;;;;;;;;5071024;28;20039;-78
2022/03/23 14:39:41;;;;;;;14.85;7.85;;;;;;;;;;5077193;28;20578;-78
2022/03/23 14:42:18;;;;;;;13.63;7.82;;;;;;;;;;5074907;28;20032;-77
2022/03/23 14:44:46;;;;;;;10.10;6.80;;;;;;;;;;5088237;28;20039;-77
2022/03/23 14:47:12;;;;;;;11.50;7.13;;;;;;;;;;5059516;28;20057;-77
2022/03/23 14:49:39;;;;;;;11.23;6.85;;;;;;;;;;5096696;28;20071;-77
2022/03/23 14:52:05;;;;;;;12.02;6.80;;;;;;;;;;5079996;28;20065;-77
2022/03/23 14:54:31;;;;;;;17.80;9.32;;;;;;;;;;5070021;28;20032;-77
2022/03/23 14:56:57;;;;;;;15.02;8.43;;;;;;;;;;5075862;28;20080;-77
2022/03/23 14:59:22;;;;;;;13.60;8.00;;;;;;;;;;5095439;28;20461;-77
2022/03/23 15:01:56;;;;;;;11.63;7.15;;;;;;;;;;5096323;28;20034;-77
2022/03/23 15:04:22;;;;;;;12.90;7.70;;;;;;;;;;5078482;28;20036;-77
2022/03/23 15:14:59;;;;;;;11.77;7.60;;;;;;;;;;5094321;28;20035;-77
2022/03/23 15:17:25;;;;;;;16.35;9.27;;;;;;;;;;5095955;28;20510;-78
2022/03/23 15:19:51;;;;;;;12.63;8.02;;;;;;;;;;5096765;28;20040;-77